LIRA/CIA METAR and TAF weather

Enter ICAO airport designator
Station Type Date Time Source
LIRA METAR 2019/12/06 22:50 UTC NOAA

LIRA 062250Z 16004KT CAVOK 12/11 Q1021


Station Type Date Time Source
LIRA Decoded METAR 2019/12/06 22:50 UTC NOAA

Roma / Ciampino, Italy (LIRA) 41-47N 012-35E 105M
Dec 06, 2019 - 05:50 PM EST / 2019.12.06 2250 UTC
Wind: from the SSE (160 degrees) at 5 MPH (4 KT):0
Visibility: greater than 7 mile(s):0
Temperature: 53 F (12 C)
Dew Point: 51 F (11 C)
Relative Humidity: 93%
Pressure (altimeter): 30.15 in. Hg (1021 hPa)
ob: LIRA 062250Z 16004KT CAVOK 12/11 Q1021
cycle: 23

Station Type Date Time Source
LIRA TAF 2019/12/06 18:25 UTC NOAA

TAF LIRA 061700Z 0618/0718 15008KT 9999 SCT040
TEMPO 0618/0703 4000 SHRA
TEMPO 0710/0715 SHRA

Example: see airport list